Terminal Aerodrome Forecast
Issued by NWS

Home | Current Version | Previous Version | Text Only | Print | Product List | Glossary On
Versions: 1 2 3 4 5 6 7 8 9 10 11 12 13 14 15
000
FTUS45 KBOI 252104 AAA
TAFTWF
TAF AMD
KTWF 252104Z 2521/2618 32008KT P6SM SCT200
     FM260400 20007KT P6SM BKN100
     FM261600 28010KT P6SM OVC060=

USA.gov is the U.S. government's official web portal to all federal, state and local government web resources and services.